sensor_id;sensor_type;location;lat;lon;timestamp;temperature;humidity
35690;DHT22;26977;44.830;-0.674;2022-07-29T00:02:02;18.10;99.90
35690;DHT22;26977;44.830;-0.674;2022-07-29T00:04:28;18.10;99.90
35690;DHT22;26977;44.830;-0.674;2022-07-29T00:06:53;18.20;99.90
35690;DHT22;26977;44.830;-0.674;2022-07-29T00:09:19;18.20;99.90
35690;DHT22;26977;44.830;-0.674;2022-07-29T00:11:45;18.40;99.90
35690;DHT22;26977;44.830;-0.674;2022-07-29T00:14:10;18.40;99.90
35690;DHT22;26977;44.830;-0.674;2022-07-29T00:16:36;18.50;99.90
35690;DHT22;26977;44.830;-0.674;2022-07-29T00:19:02;18.50;99.90
35690;DHT22;26977;44.830;-0.674;2022-07-29T00:21:28;18.50;99.90
35690;DHT22;26977;44.830;-0.674;2022-07-29T00:23:54;18.60;99.90
35690;DHT22;26977;44.830;-0.674;2022-07-29T00:26:20;18.60;99.90
35690;DHT22;26977;44.830;-0.674;2022-07-29T00:28:45;18.50;99.90
35690;DHT22;26977;44.830;-0.674;2022-07-29T00:31:11;18.60;99.90
35690;DHT22;26977;44.830;-0.674;2022-07-29T00:33:37;18.60;99.90
35690;DHT22;26977;44.830;-0.674;2022-07-29T00:36:03;18.70;99.90
35690;DHT22;26977;44.830;-0.674;2022-07-29T00:38:29;18.70;99.90
35690;DHT22;26977;44.830;-0.674;2022-07-29T00:40:54;18.80;99.90
35690;DHT22;26977;44.830;-0.674;2022-07-29T00:43:20;18.80;99.90
35690;DHT22;26977;44.830;-0.674;2022-07-29T00:45:46;18.80;99.90
35690;DHT22;26977;44.830;-0.674;2022-07-29T00:48:11;18.80;99.90
35690;DHT22;26977;44.830;-0.674;2022-07-29T00:50:37;18.80;99.90
35690;DHT22;26977;44.830;-0.674;2022-07-29T00:53:05;18.70;99.90
35690;DHT22;26977;44.830;-0.674;2022-07-29T00:55:31;18.70;99.90
35690;DHT22;26977;44.830;-0.674;2022-07-29T00:57:58;18.70;99.90
35690;DHT22;26977;44.830;-0.674;2022-07-29T01:00:26;18.80;99.90
35690;DHT22;26977;44.830;-0.674;2022-07-29T01:02:52;18.80;99.90
35690;DHT22;26977;44.830;-0.674;2022-07-29T01:05:20;18.80;99.90
35690;DHT22;26977;44.830;-0.674;2022-07-29T01:07:49;18.80;99.90
35690;DHT22;26977;44.830;-0.674;2022-07-29T01:10:16;18.80;99.90
35690;DHT22;26977;44.830;-0.674;2022-07-29T01:12:45;18.80;99.90
35690;DHT22;26977;44.830;-0.674;2022-07-29T01:15:12;18.90;99.90
35690;DHT22;26977;44.830;-0.674;2022-07-29T01:34:06;18.80;99.90
35690;DHT22;26977;44.830;-0.674;2022-07-29T01:37:08;18.70;99.90
35690;DHT22;26977;44.830;-0.674;2022-07-29T01:39:38;18.70;99.90
35690;DHT22;26977;44.830;-0.674;2022-07-29T01:48:04;18.60;99.90
35690;DHT22;26977;44.830;-0.674;2022-07-29T01:50:40;18.60;99.90
35690;DHT22;26977;44.830;-0.674;2022-07-29T01:53:08;18.60;99.90
35690;DHT22;26977;44.830;-0.674;2022-07-29T01:55:38;18.50;99.90
35690;DHT22;26977;44.830;-0.674;2022-07-29T01:58:05;18.50;99.90
35690;DHT22;26977;44.830;-0.674;2022-07-29T02:00:33;18.40;99.90
35690;DHT22;26977;44.830;-0.674;2022-07-29T02:03:02;18.40;99.90
35690;DHT22;26977;44.830;-0.674;2022-07-29T02:05:30;18.30;99.90
35690;DHT22;26977;44.830;-0.674;2022-07-29T02:07:58;18.30;99.90
35690;DHT22;26977;44.830;-0.674;2022-07-29T02:10:26;18.30;99.90
35690;DHT22;26977;44.830;-0.674;2022-07-29T02:12:54;18.40;99.90
35690;DHT22;26977;44.830;-0.674;2022-07-29T02:15:23;18.40;99.90
35690;DHT22;26977;44.830;-0.674;2022-07-29T02:17:53;18.40;99.90
35690;DHT22;26977;44.830;-0.674;2022-07-29T02:20:22;18.30;99.90
35690;DHT22;26977;44.830;-0.674;2022-07-29T02:22:51;18.40;99.90
35690;DHT22;26977;44.830;-0.674;2022-07-29T02:25:18;18.30;99.90
35690;DHT22;26977;44.830;-0.674;2022-07-29T02:27:44;18.40;99.90
35690;DHT22;26977;44.830;-0.674;2022-07-29T02:30:12;18.30;99.90
35690;DHT22;26977;44.830;-0.674;2022-07-29T02:32:39;18.30;99.90
35690;DHT22;26977;44.830;-0.674;2022-07-29T02:35:07;18.30;99.90
35690;DHT22;26977;44.830;-0.674;2022-07-29T02:37:34;18.30;99.90
35690;DHT22;26977;44.830;-0.674;2022-07-29T02:40:01;18.40;99.90
35690;DHT22;26977;44.830;-0.674;2022-07-29T02:42:28;18.30;99.90
35690;DHT22;26977;44.830;-0.674;2022-07-29T02:44:55;18.30;99.90
35690;DHT22;26977;44.830;-0.674;2022-07-29T02:50:28;18.50;99.90
35690;DHT22;26977;44.830;-0.674;2022-07-29T02:53:14;18.50;99.90
35690;DHT22;26977;44.830;-0.674;2022-07-29T02:58:15;18.60;99.90
35690;DHT22;26977;44.830;-0.674;2022-07-29T03:00:44;18.60;99.90
35690;DHT22;26977;44.830;-0.674;2022-07-29T03:03:14;18.60;99.90
35690;DHT22;26977;44.830;-0.674;2022-07-29T03:05:40;18.50;99.90
35690;DHT22;26977;44.830;-0.674;2022-07-29T03:08:10;18.60;99.90
35690;DHT22;26977;44.830;-0.674;2022-07-29T03:10:38;18.60;99.90
35690;DHT22;26977;44.830;-0.674;2022-07-29T03:13:05;18.50;99.90
35690;DHT22;26977;44.830;-0.674;2022-07-29T03:15:31;18.50;99.90
35690;DHT22;26977;44.830;-0.674;2022-07-29T03:17:58;18.50;99.90
35690;DHT22;26977;44.830;-0.674;2022-07-29T03:20:24;18.50;99.90
35690;DHT22;26977;44.830;-0.674;2022-07-29T03:22:50;18.50;99.90
35690;DHT22;26977;44.830;-0.674;2022-07-29T03:25:18;18.40;99.90
35690;DHT22;26977;44.830;-0.674;2022-07-29T03:27:45;18.40;99.90
35690;DHT22;26977;44.830;-0.674;2022-07-29T03:30:12;18.40;99.90
35690;DHT22;26977;44.830;-0.674;2022-07-29T03:32:38;18.40;99.90
35690;DHT22;26977;44.830;-0.674;2022-07-29T03:35:05;18.50;99.90
35690;DHT22;26977;44.830;-0.674;2022-07-29T03:37:31;18.40;99.90
35690;DHT22;26977;44.830;-0.674;2022-07-29T03:40:00;18.30;99.90
35690;DHT22;26977;44.830;-0.674;2022-07-29T03:42:32;18.30;99.90
35690;DHT22;26977;44.830;-0.674;2022-07-29T03:45:05;18.30;99.90
35690;DHT22;26977;44.830;-0.674;2022-07-29T03:47:33;18.30;99.90
35690;DHT22;26977;44.830;-0.674;2022-07-29T03:50:05;18.30;99.90
35690;DHT22;26977;44.830;-0.674;2022-07-29T03:52:31;18.30;99.90
35690;DHT22;26977;44.830;-0.674;2022-07-29T03:54:57;18.30;99.90
35690;DHT22;26977;44.830;-0.674;2022-07-29T03:57:25;18.40;99.90
35690;DHT22;26977;44.830;-0.674;2022-07-29T03:59:53;18.30;99.90
35690;DHT22;26977;44.830;-0.674;2022-07-29T04:02:20;18.30;99.90
35690;DHT22;26977;44.830;-0.674;2022-07-29T04:04:46;18.30;99.90
35690;DHT22;26977;44.830;-0.674;2022-07-29T04:07:13;18.30;99.90
35690;DHT22;26977;44.830;-0.674;2022-07-29T04:09:40;18.30;99.90
35690;DHT22;26977;44.830;-0.674;2022-07-29T04:12:06;18.40;99.90
35690;DHT22;26977;44.830;-0.674;2022-07-29T04:14:33;18.30;99.90
35690;DHT22;26977;44.830;-0.674;2022-07-29T04:16:59;18.30;99.90
35690;DHT22;26977;44.830;-0.674;2022-07-29T04:19:25;18.30;99.90
35690;DHT22;26977;44.830;-0.674;2022-07-29T04:21:51;18.30;99.90
35690;DHT22;26977;44.830;-0.674;2022-07-29T04:24:17;18.30;99.90
35690;DHT22;26977;44.830;-0.674;2022-07-29T04:26:43;18.30;99.90
35690;DHT22;26977;44.830;-0.674;2022-07-29T04:29:08;18.20;99.90
35690;DHT22;26977;44.830;-0.674;2022-07-29T04:31:34;18.20;99.90
35690;DHT22;26977;44.830;-0.674;2022-07-29T04:34:00;18.20;99.90
35690;DHT22;26977;44.830;-0.674;2022-07-29T04:36:25;18.10;99.90
35690;DHT22;26977;44.830;-0.674;2022-07-29T04:38:51;18.10;99.90
35690;DHT22;26977;44.830;-0.674;2022-07-29T04:41:16;18.10;99.90
35690;DHT22;26977;44.830;-0.674;2022-07-29T04:43:42;18.00;99.90
35690;DHT22;26977;44.830;-0.674;2022-07-29T04:46:08;18.00;99.90
35690;DHT22;26977;44.830;-0.674;2022-07-29T04:48:33;17.90;99.90
35690;DHT22;26977;44.830;-0.674;2022-07-29T04:50:59;17.90;99.90
35690;DHT22;26977;44.830;-0.674;2022-07-29T04:53:25;17.90;99.90
35690;DHT22;26977;44.830;-0.674;2022-07-29T04:55:51;17.90;99.90
35690;DHT22;26977;44.830;-0.674;2022-07-29T04:58:17;17.80;99.90
35690;DHT22;26977;44.830;-0.674;2022-07-29T05:00:43;17.80;99.90
35690;DHT22;26977;44.830;-0.674;2022-07-29T05:03:08;17.70;99.90
35690;DHT22;26977;44.830;-0.674;2022-07-29T05:05:34;17.70;99.90
35690;DHT22;26977;44.830;-0.674;2022-07-29T05:08:00;17.70;99.90
35690;DHT22;26977;44.830;-0.674;2022-07-29T05:10:25;17.80;99.90
35690;DHT22;26977;44.830;-0.674;2022-07-29T05:12:51;17.90;99.90
35690;DHT22;26977;44.830;-0.674;2022-07-29T05:15:17;18.00;99.90
35690;DHT22;26977;44.830;-0.674;2022-07-29T05:17:43;18.00;99.90
35690;DHT22;26977;44.830;-0.674;2022-07-29T05:20:10;18.00;99.90
35690;DHT22;26977;44.830;-0.674;2022-07-29T05:22:35;18.00;99.90
35690;DHT22;26977;44.830;-0.674;2022-07-29T05:25:01;18.00;99.90
35690;DHT22;26977;44.830;-0.674;2022-07-29T05:27:27;18.00;99.90
35690;DHT22;26977;44.830;-0.674;2022-07-29T05:29:53;18.10;99.90
35690;DHT22;26977;44.830;-0.674;2022-07-29T05:32:19;18.10;99.90
35690;DHT22;26977;44.830;-0.674;2022-07-29T05:34:44;18.00;99.90
35690;DHT22;26977;44.830;-0.674;2022-07-29T05:37:10;18.00;99.90
35690;DHT22;26977;44.830;-0.674;2022-07-29T05:39:38;18.00;99.90
35690;DHT22;26977;44.830;-0.674;2022-07-29T05:42:08;17.80;99.90
35690;DHT22;26977;44.830;-0.674;2022-07-29T05:44:37;17.60;99.90
35690;DHT22;26977;44.830;-0.674;2022-07-29T05:47:03;17.50;99.90
35690;DHT22;26977;44.830;-0.674;2022-07-29T05:49:28;17.40;99.90
35690;DHT22;26977;44.830;-0.674;2022-07-29T05:51:54;17.40;99.90
35690;DHT22;26977;44.830;-0.674;2022-07-29T05:54:20;17.40;99.90
35690;DHT22;26977;44.830;-0.674;2022-07-29T05:56:46;17.40;99.90
35690;DHT22;26977;44.830;-0.674;2022-07-29T05:59:11;17.40;99.90
35690;DHT22;26977;44.830;-0.674;2022-07-29T06:01:37;17.50;99.90
35690;DHT22;26977;44.830;-0.674;2022-07-29T06:04:08;17.60;99.90
35690;DHT22;26977;44.830;-0.674;2022-07-29T06:06:34;17.60;99.90
35690;DHT22;26977;44.830;-0.674;2022-07-29T06:09:00;17.70;99.90
35690;DHT22;26977;44.830;-0.674;2022-07-29T06:11:27;17.70;99.90
35690;DHT22;26977;44.830;-0.674;2022-07-29T06:13:53;17.80;99.90
35690;DHT22;26977;44.830;-0.674;2022-07-29T06:16:19;17.90;99.90
35690;DHT22;26977;44.830;-0.674;2022-07-29T06:18:44;18.00;99.90
35690;DHT22;26977;44.830;-0.674;2022-07-29T06:21:10;18.00;99.90
35690;DHT22;26977;44.830;-0.674;2022-07-29T06:23:37;18.10;99.90
35690;DHT22;26977;44.830;-0.674;2022-07-29T06:26:03;18.10;99.90
35690;DHT22;26977;44.830;-0.674;2022-07-29T06:28:29;18.10;99.90
35690;DHT22;26977;44.830;-0.674;2022-07-29T06:30:54;18.20;99.90
35690;DHT22;26977;44.830;-0.674;2022-07-29T06:33:20;18.30;99.90
35690;DHT22;26977;44.830;-0.674;2022-07-29T06:35:46;18.30;99.90
35690;DHT22;26977;44.830;-0.674;2022-07-29T06:38:13;18.40;99.90
35690;DHT22;26977;44.830;-0.674;2022-07-29T06:40:43;18.50;99.90
35690;DHT22;26977;44.830;-0.674;2022-07-29T06:43:36;18.50;99.90
35690;DHT22;26977;44.830;-0.674;2022-07-29T06:46:08;18.60;99.90
35690;DHT22;26977;44.830;-0.674;2022-07-29T06:48:35;18.70;99.90
35690;DHT22;26977;44.830;-0.674;2022-07-29T06:51:02;18.70;99.90
35690;DHT22;26977;44.830;-0.674;2022-07-29T06:53:28;18.80;99.90
35690;DHT22;26977;44.830;-0.674;2022-07-29T06:55:54;18.80;99.90
35690;DHT22;26977;44.830;-0.674;2022-07-29T06:58:20;18.80;99.90
35690;DHT22;26977;44.830;-0.674;2022-07-29T07:00:48;18.80;99.90
35690;DHT22;26977;44.830;-0.674;2022-07-29T07:03:15;18.70;99.90
35690;DHT22;26977;44.830;-0.674;2022-07-29T07:05:42;18.80;99.90
35690;DHT22;26977;44.830;-0.674;2022-07-29T07:08:07;18.80;99.90
35690;DHT22;26977;44.830;-0.674;2022-07-29T07:10:33;18.80;99.90
35690;DHT22;26977;44.830;-0.674;2022-07-29T07:13:00;18.90;99.90
35690;DHT22;26977;44.830;-0.674;2022-07-29T07:15:26;19.00;99.90
35690;DHT22;26977;44.830;-0.674;2022-07-29T07:17:52;19.00;99.90
35690;DHT22;26977;44.830;-0.674;2022-07-29T07:20:18;19.00;99.90
35690;DHT22;26977;44.830;-0.674;2022-07-29T07:22:44;19.20;99.90
35690;DHT22;26977;44.830;-0.674;2022-07-29T07:25:10;19.20;99.90
35690;DHT22;26977;44.830;-0.674;2022-07-29T07:27:36;19.40;99.90
35690;DHT22;26977;44.830;-0.674;2022-07-29T07:30:04;19.40;99.90
35690;DHT22;26977;44.830;-0.674;2022-07-29T07:32:31;19.60;99.90
35690;DHT22;26977;44.830;-0.674;2022-07-29T07:34:57;19.80;99.90
35690;DHT22;26977;44.830;-0.674;2022-07-29T07:37:24;19.80;99.90
35690;DHT22;26977;44.830;-0.674;2022-07-29T07:39:53;19.80;99.90
35690;DHT22;26977;44.830;-0.674;2022-07-29T07:42:19;19.90;99.90
35690;DHT22;26977;44.830;-0.674;2022-07-29T07:44:45;20.00;99.90
35690;DHT22;26977;44.830;-0.674;2022-07-29T07:47:12;19.80;99.90
35690;DHT22;26977;44.830;-0.674;2022-07-29T07:49:38;19.90;99.90
35690;DHT22;26977;44.830;-0.674;2022-07-29T07:52:04;19.90;99.90
35690;DHT22;26977;44.830;-0.674;2022-07-29T07:54:30;20.00;99.90
35690;DHT22;26977;44.830;-0.674;2022-07-29T07:56:56;20.10;99.90
35690;DHT22;26977;44.830;-0.674;2022-07-29T07:59:22;20.10;99.90
35690;DHT22;26977;44.830;-0.674;2022-07-29T08:01:47;20.10;99.90
35690;DHT22;26977;44.830;-0.674;2022-07-29T08:04:13;20.20;99.90
35690;DHT22;26977;44.830;-0.674;2022-07-29T08:06:39;20.40;99.90
35690;DHT22;26977;44.830;-0.674;2022-07-29T08:09:05;20.40;99.90
35690;DHT22;26977;44.830;-0.674;2022-07-29T08:11:31;20.40;99.90
35690;DHT22;26977;44.830;-0.674;2022-07-29T08:13:56;20.50;99.90
35690;DHT22;26977;44.830;-0.674;2022-07-29T08:16:22;20.50;99.90
35690;DHT22;26977;44.830;-0.674;2022-07-29T08:18:50;20.40;99.90
35690;DHT22;26977;44.830;-0.674;2022-07-29T08:21:16;20.40;99.90
35690;DHT22;26977;44.830;-0.674;2022-07-29T08:23:46;20.50;99.90
35690;DHT22;26977;44.830;-0.674;2022-07-29T08:26:14;20.50;99.90
35690;DHT22;26977;44.830;-0.674;2022-07-29T08:28:43;20.70;99.90
35690;DHT22;26977;44.830;-0.674;2022-07-29T08:31:11;21.00;99.90
35690;DHT22;26977;44.830;-0.674;2022-07-29T08:33:38;21.10;99.90
35690;DHT22;26977;44.830;-0.674;2022-07-29T08:36:05;21.30;99.90
35690;DHT22;26977;44.830;-0.674;2022-07-29T08:38:31;21.40;99.90
35690;DHT22;26977;44.830;-0.674;2022-07-29T08:40:58;21.40;99.90
35690;DHT22;26977;44.830;-0.674;2022-07-29T08:43:24;21.30;99.90
35690;DHT22;26977;44.830;-0.674;2022-07-29T08:45:51;21.20;99.90
35690;DHT22;26977;44.830;-0.674;2022-07-29T08:48:19;21.20;99.90
35690;DHT22;26977;44.830;-0.674;2022-07-29T08:50:47;21.40;99.90
35690;DHT22;26977;44.830;-0.674;2022-07-29T08:53:16;21.60;99.90
35690;DHT22;26977;44.830;-0.674;2022-07-29T08:55:44;21.80;99.90
35690;DHT22;26977;44.830;-0.674;2022-07-29T08:58:10;21.90;99.90
35690;DHT22;26977;44.830;-0.674;2022-07-29T09:00:37;22.10;99.90
35690;DHT22;26977;44.830;-0.674;2022-07-29T09:03:07;22.10;99.90
35690;DHT22;26977;44.830;-0.674;2022-07-29T09:05:34;22.30;99.70
35690;DHT22;26977;44.830;-0.674;2022-07-29T09:08:01;22.30;99.30
35690;DHT22;26977;44.830;-0.674;2022-07-29T09:10:27;22.40;99.60
35690;DHT22;26977;44.830;-0.674;2022-07-29T09:12:54;22.50;99.00
35690;DHT22;26977;44.830;-0.674;2022-07-29T09:15:20;22.70;97.50
35690;DHT22;26977;44.830;-0.674;2022-07-29T09:17:48;22.90;96.80
35690;DHT22;26977;44.830;-0.674;2022-07-29T09:20:20;22.90;97.10
35690;DHT22;26977;44.830;-0.674;2022-07-29T09:22:47;22.90;96.50
35690;DHT22;26977;44.830;-0.674;2022-07-29T09:25:31;23.20;95.60
35690;DHT22;26977;44.830;-0.674;2022-07-29T09:28:06;23.70;93.70
35690;DHT22;26977;44.830;-0.674;2022-07-29T09:30:32;24.30;92.10
35690;DHT22;26977;44.830;-0.674;2022-07-29T09:32:59;24.40;91.30
35690;DHT22;26977;44.830;-0.674;2022-07-29T09:35:27;24.70;88.20
35690;DHT22;26977;44.830;-0.674;2022-07-29T09:37:54;24.40;86.10
35690;DHT22;26977;44.830;-0.674;2022-07-29T09:40:23;24.40;88.30
35690;DHT22;26977;44.830;-0.674;2022-07-29T09:42:50;24.90;88.60
35690;DHT22;26977;44.830;-0.674;2022-07-29T09:45:33;25.50;87.60
35690;DHT22;26977;44.830;-0.674;2022-07-29T09:48:00;25.90;88.20
35690;DHT22;26977;44.830;-0.674;2022-07-29T09:50:42;26.00;85.20
35690;DHT22;26977;44.830;-0.674;2022-07-29T09:53:10;25.80;84.00
35690;DHT22;26977;44.830;-0.674;2022-07-29T09:55:49;25.80;84.20
35690;DHT22;26977;44.830;-0.674;2022-07-29T09:58:20;25.80;84.80
35690;DHT22;26977;44.830;-0.674;2022-07-29T10:00:48;25.80;85.20
35690;DHT22;26977;44.830;-0.674;2022-07-29T10:03:14;25.40;86.20
35690;DHT22;26977;44.830;-0.674;2022-07-29T10:05:41;25.20;87.50
35690;DHT22;26977;44.830;-0.674;2022-07-29T10:08:08;25.00;89.20
35690;DHT22;26977;44.830;-0.674;2022-07-29T10:10:36;24.80;90.50
35690;DHT22;26977;44.830;-0.674;2022-07-29T10:13:04;24.80;90.20
35690;DHT22;26977;44.830;-0.674;2022-07-29T10:15:33;24.30;90.40
35690;DHT22;26977;44.830;-0.674;2022-07-29T10:17:59;24.60;90.60
35690;DHT22;26977;44.830;-0.674;2022-07-29T10:20:26;25.10;89.20
35690;DHT22;26977;44.830;-0.674;2022-07-29T10:22:53;25.40;87.90
35690;DHT22;26977;44.830;-0.674;2022-07-29T10:25:19;26.10;86.30
35690;DHT22;26977;44.830;-0.674;2022-07-29T10:27:46;26.30;84.80
35690;DHT22;26977;44.830;-0.674;2022-07-29T10:30:15;26.60;84.80
35690;DHT22;26977;44.830;-0.674;2022-07-29T10:33:18;27.00;82.60
35690;DHT22;26977;44.830;-0.674;2022-07-29T10:41:52;26.20;82.10
35690;DHT22;26977;44.830;-0.674;2022-07-29T10:44:22;26.10;82.90
35690;DHT22;26977;44.830;-0.674;2022-07-29T10:46:49;25.30;83.20
35690;DHT22;26977;44.830;-0.674;2022-07-29T10:49:26;25.50;83.30
35690;DHT22;26977;44.830;-0.674;2022-07-29T10:57:29;25.30;85.00
35690;DHT22;26977;44.830;-0.674;2022-07-29T11:05:06;25.00;85.30
35690;DHT22;26977;44.830;-0.674;2022-07-29T11:07:36;25.10;85.10
35690;DHT22;26977;44.830;-0.674;2022-07-29T11:15:10;25.60;84.10
35690;DHT22;26977;44.830;-0.674;2022-07-29T11:20:47;26.20;82.50
35690;DHT22;26977;44.830;-0.674;2022-07-29T11:23:28;26.40;82.00
35690;DHT22;26977;44.830;-0.674;2022-07-29T11:26:14;26.60;81.20
35690;DHT22;26977;44.830;-0.674;2022-07-29T11:45:02;25.70;82.70
35690;DHT22;26977;44.830;-0.674;2022-07-29T11:47:36;25.20;84.40
35690;DHT22;26977;44.830;-0.674;2022-07-29T11:50:05;25.10;84.30
35690;DHT22;26977;44.830;-0.674;2022-07-29T11:52:39;25.50;83.20
35690;DHT22;26977;44.830;-0.674;2022-07-29T11:55:10;25.80;83.10
35690;DHT22;26977;44.830;-0.674;2022-07-29T11:57:44;26.20;82.40
35690;DHT22;26977;44.830;-0.674;2022-07-29T12:00:11;26.40;82.20
35690;DHT22;26977;44.830;-0.674;2022-07-29T12:02:41;26.60;81.20
35690;DHT22;26977;44.830;-0.674;2022-07-29T12:05:08;27.20;80.00
35690;DHT22;26977;44.830;-0.674;2022-07-29T12:07:35;27.30;77.80
35690;DHT22;26977;44.830;-0.674;2022-07-29T12:10:04;26.90;78.70
35690;DHT22;26977;44.830;-0.674;2022-07-29T12:12:29;26.90;78.30
35690;DHT22;26977;44.830;-0.674;2022-07-29T12:14:55;25.90;80.60
35690;DHT22;26977;44.830;-0.674;2022-07-29T12:17:32;25.40;82.20
35690;DHT22;26977;44.830;-0.674;2022-07-29T12:20:03;25.60;82.30
35690;DHT22;26977;44.830;-0.674;2022-07-29T12:22:33;25.90;81.80
35690;DHT22;26977;44.830;-0.674;2022-07-29T12:25:08;25.60;81.90
35690;DHT22;26977;44.830;-0.674;2022-07-29T12:27:36;26.00;82.00
35690;DHT22;26977;44.830;-0.674;2022-07-29T12:30:10;26.10;81.10
35690;DHT22;26977;44.830;-0.674;2022-07-29T12:32:55;25.40;82.40
35690;DHT22;26977;44.830;-0.674;2022-07-29T12:35:21;25.80;82.10
35690;DHT22;26977;44.830;-0.674;2022-07-29T12:37:49;25.80;81.40
35690;DHT22;26977;44.830;-0.674;2022-07-29T12:40:17;25.90;81.70
35690;DHT22;26977;44.830;-0.674;2022-07-29T12:43:06;25.60;82.00
35690;DHT22;26977;44.830;-0.674;2022-07-29T12:45:32;25.60;82.00
35690;DHT22;26977;44.830;-0.674;2022-07-29T12:47:58;25.70;82.20
35690;DHT22;26977;44.830;-0.674;2022-07-29T12:50:24;26.10;80.50
35690;DHT22;26977;44.830;-0.674;2022-07-29T12:52:50;26.20;80.50
35690;DHT22;26977;44.830;-0.674;2022-07-29T12:55:43;26.80;79.80
35690;DHT22;26977;44.830;-0.674;2022-07-29T12:58:10;27.00;78.60
35690;DHT22;26977;44.830;-0.674;2022-07-29T13:00:35;27.00;77.60
35690;DHT22;26977;44.830;-0.674;2022-07-29T13:03:01;26.70;78.40
35690;DHT22;26977;44.830;-0.674;2022-07-29T13:05:44;27.00;78.10
35690;DHT22;26977;44.830;-0.674;2022-07-29T13:08:11;27.30;77.30
35690;DHT22;26977;44.830;-0.674;2022-07-29T13:10:37;27.30;75.80
35690;DHT22;26977;44.830;-0.674;2022-07-29T13:13:12;27.30;76.10
35690;DHT22;26977;44.830;-0.674;2022-07-29T13:15:41;26.90;77.00
35690;DHT22;26977;44.830;-0.674;2022-07-29T13:18:35;26.20;78.20
35690;DHT22;26977;44.830;-0.674;2022-07-29T13:21:15;26.30;78.40
35690;DHT22;26977;44.830;-0.674;2022-07-29T13:23:42;26.30;78.00
35690;DHT22;26977;44.830;-0.674;2022-07-29T13:26:09;26.50;78.60
35690;DHT22;26977;44.830;-0.674;2022-07-29T13:28:35;26.30;78.10
35690;DHT22;26977;44.830;-0.674;2022-07-29T13:31:01;26.30;78.20
35690;DHT22;26977;44.830;-0.674;2022-07-29T13:33:27;26.00;79.20
35690;DHT22;26977;44.830;-0.674;2022-07-29T13:35:52;25.90;79.10
35690;DHT22;26977;44.830;-0.674;2022-07-29T13:38:18;25.80;80.10
35690;DHT22;26977;44.830;-0.674;2022-07-29T13:40:44;26.10;79.40
35690;DHT22;26977;44.830;-0.674;2022-07-29T13:43:10;26.10;79.70
35690;DHT22;26977;44.830;-0.674;2022-07-29T13:45:36;26.20;79.40
35690;DHT22;26977;44.830;-0.674;2022-07-29T13:48:03;25.70;80.60
35690;DHT22;26977;44.830;-0.674;2022-07-29T13:50:29;25.90;81.20
35690;DHT22;26977;44.830;-0.674;2022-07-29T13:52:54;26.00;80.80
35690;DHT22;26977;44.830;-0.674;2022-07-29T13:55:20;26.00;81.00
35690;DHT22;26977;44.830;-0.674;2022-07-29T13:57:46;25.70;81.40
35690;DHT22;26977;44.830;-0.674;2022-07-29T14:00:13;25.50;82.30
35690;DHT22;26977;44.830;-0.674;2022-07-29T14:02:40;25.40;82.50
35690;DHT22;26977;44.830;-0.674;2022-07-29T14:05:06;25.30;82.90
35690;DHT22;26977;44.830;-0.674;2022-07-29T14:07:32;25.20;83.20
35690;DHT22;26977;44.830;-0.674;2022-07-29T14:09:58;25.30;83.10
35690;DHT22;26977;44.830;-0.674;2022-07-29T14:12:23;25.50;83.20
35690;DHT22;26977;44.830;-0.674;2022-07-29T14:14:49;25.50;83.40
35690;DHT22;26977;44.830;-0.674;2022-07-29T14:17:15;25.60;83.30
35690;DHT22;26977;44.830;-0.674;2022-07-29T14:19:41;25.60;83.30
35690;DHT22;26977;44.830;-0.674;2022-07-29T14:22:08;25.40;84.10
35690;DHT22;26977;44.830;-0.674;2022-07-29T14:24:35;25.50;84.20
35690;DHT22;26977;44.830;-0.674;2022-07-29T14:27:00;25.60;83.50
35690;DHT22;26977;44.830;-0.674;2022-07-29T14:29:26;25.80;83.50
35690;DHT22;26977;44.830;-0.674;2022-07-29T14:31:52;26.00;83.00
35690;DHT22;26977;44.830;-0.674;2022-07-29T14:34:18;26.30;81.70
35690;DHT22;26977;44.830;-0.674;2022-07-29T14:36:44;26.30;81.90
35690;DHT22;26977;44.830;-0.674;2022-07-29T14:39:09;26.60;81.40
35690;DHT22;26977;44.830;-0.674;2022-07-29T14:41:35;26.60;81.00
35690;DHT22;26977;44.830;-0.674;2022-07-29T14:44:01;26.60;81.00
35690;DHT22;26977;44.830;-0.674;2022-07-29T14:46:27;27.20;80.70
35690;DHT22;26977;44.830;-0.674;2022-07-29T14:48:53;27.40;79.50
35690;DHT22;26977;44.830;-0.674;2022-07-29T14:51:19;27.00;80.20
35690;DHT22;26977;44.830;-0.674;2022-07-29T14:53:45;27.30;80.20
35690;DHT22;26977;44.830;-0.674;2022-07-29T14:56:11;27.20;80.00
35690;DHT22;26977;44.830;-0.674;2022-07-29T14:58:36;27.20;79.90
35690;DHT22;26977;44.830;-0.674;2022-07-29T15:01:02;27.10;80.10
35690;DHT22;26977;44.830;-0.674;2022-07-29T15:03:28;27.10;80.30
35690;DHT22;26977;44.830;-0.674;2022-07-29T15:05:54;27.40;79.30
35690;DHT22;26977;44.830;-0.674;2022-07-29T15:08:20;27.20;79.30
35690;DHT22;26977;44.830;-0.674;2022-07-29T15:10:46;27.00;80.40
35690;DHT22;26977;44.830;-0.674;2022-07-29T15:13:12;26.40;81.30
35690;DHT22;26977;44.830;-0.674;2022-07-29T15:15:38;26.20;81.90
35690;DHT22;26977;44.830;-0.674;2022-07-29T15:18:05;26.20;82.30
35690;DHT22;26977;44.830;-0.674;2022-07-29T15:20:31;26.10;82.40
35690;DHT22;26977;44.830;-0.674;2022-07-29T15:22:56;26.00;82.90
35690;DHT22;26977;44.830;-0.674;2022-07-29T15:25:23;25.80;83.40
35690;DHT22;26977;44.830;-0.674;2022-07-29T15:27:49;25.40;84.40
35690;DHT22;26977;44.830;-0.674;2022-07-29T15:30:15;25.30;84.60
35690;DHT22;26977;44.830;-0.674;2022-07-29T15:32:43;25.30;84.60
35690;DHT22;26977;44.830;-0.674;2022-07-29T15:35:08;25.40;85.00
35690;DHT22;26977;44.830;-0.674;2022-07-29T15:37:36;25.30;84.70
35690;DHT22;26977;44.830;-0.674;2022-07-29T15:40:03;25.20;84.80
35690;DHT22;26977;44.830;-0.674;2022-07-29T15:42:29;25.00;85.00
35690;DHT22;26977;44.830;-0.674;2022-07-29T15:44:54;25.00;85.50
35690;DHT22;26977;44.830;-0.674;2022-07-29T15:47:21;25.10;85.20
35690;DHT22;26977;44.830;-0.674;2022-07-29T15:49:46;25.00;85.30
35690;DHT22;26977;44.830;-0.674;2022-07-29T15:52:12;25.10;85.40
35690;DHT22;26977;44.830;-0.674;2022-07-29T15:54:39;24.90;85.10
35690;DHT22;26977;44.830;-0.674;2022-07-29T15:57:08;24.80;85.40
35690;DHT22;26977;44.830;-0.674;2022-07-29T15:59:33;24.80;85.00
35690;DHT22;26977;44.830;-0.674;2022-07-29T16:01:59;24.70;85.20
35690;DHT22;26977;44.830;-0.674;2022-07-29T16:04:26;24.80;85.80
35690;DHT22;26977;44.830;-0.674;2022-07-29T16:06:52;24.90;85.70
35690;DHT22;26977;44.830;-0.674;2022-07-29T16:09:18;24.90;86.10
35690;DHT22;26977;44.830;-0.674;2022-07-29T16:11:45;25.00;86.00
35690;DHT22;26977;44.830;-0.674;2022-07-29T16:14:13;25.10;85.70
35690;DHT22;26977;44.830;-0.674;2022-07-29T16:16:38;24.80;86.40
35690;DHT22;26977;44.830;-0.674;2022-07-29T16:19:05;25.00;86.00
35690;DHT22;26977;44.830;-0.674;2022-07-29T16:21:31;25.00;86.10
35690;DHT22;26977;44.830;-0.674;2022-07-29T16:23:58;25.10;86.10
35690;DHT22;26977;44.830;-0.674;2022-07-29T16:26:24;25.20;85.50
35690;DHT22;26977;44.830;-0.674;2022-07-29T16:28:49;25.40;85.10